sensor_id;sensor_type;location;lat;lon;timestamp;temperature;humidity
51996;DHT22;38010;53.264;6.592;2022-10-16T00:01:29;16.90;99.90
51996;DHT22;38010;53.264;6.592;2022-10-16T00:03:57;16.90;99.90
51996;DHT22;38010;53.264;6.592;2022-10-16T00:06:24;16.90;99.90
51996;DHT22;38010;53.264;6.592;2022-10-16T00:08:50;16.90;99.90
51996;DHT22;38010;53.264;6.592;2022-10-16T00:11:22;16.90;99.90
51996;DHT22;38010;53.264;6.592;2022-10-16T00:13:49;16.90;99.90
51996;DHT22;38010;53.264;6.592;2022-10-16T00:16:16;16.90;99.90
51996;DHT22;38010;53.264;6.592;2022-10-16T00:18:42;16.90;99.90
51996;DHT22;38010;53.264;6.592;2022-10-16T00:21:14;16.90;99.90
51996;DHT22;38010;53.264;6.592;2022-10-16T00:23:41;16.90;99.90
51996;DHT22;38010;53.264;6.592;2022-10-16T00:26:09;16.80;99.90
51996;DHT22;38010;53.264;6.592;2022-10-16T00:28:36;16.90;99.90
51996;DHT22;38010;53.264;6.592;2022-10-16T00:31:07;16.80;99.90
51996;DHT22;38010;53.264;6.592;2022-10-16T00:33:33;16.90;99.90
51996;DHT22;38010;53.264;6.592;2022-10-16T00:36:00;16.80;99.90
51996;DHT22;38010;53.264;6.592;2022-10-16T00:38:27;16.80;99.90
51996;DHT22;38010;53.264;6.592;2022-10-16T00:40:52;16.80;99.90
51996;DHT22;38010;53.264;6.592;2022-10-16T00:43:49;16.80;99.90
51996;DHT22;38010;53.264;6.592;2022-10-16T00:48:51;16.90;99.90
51996;DHT22;38010;53.264;6.592;2022-10-16T00:51:20;16.80;99.90
51996;DHT22;38010;53.264;6.592;2022-10-16T00:53:48;16.80;99.90
51996;DHT22;38010;53.264;6.592;2022-10-16T00:56:14;16.90;99.90
51996;DHT22;38010;53.264;6.592;2022-10-16T00:58:40;16.80;99.90
51996;DHT22;38010;53.264;6.592;2022-10-16T01:01:06;16.90;99.90
51996;DHT22;38010;53.264;6.592;2022-10-16T01:03:34;16.80;99.90
51996;DHT22;38010;53.264;6.592;2022-10-16T01:06:17;16.80;99.90
51996;DHT22;38010;53.264;6.592;2022-10-16T01:08:54;16.80;99.90
51996;DHT22;38010;53.264;6.592;2022-10-16T01:14:39;16.80;99.90
51996;DHT22;38010;53.264;6.592;2022-10-16T01:17:17;16.80;99.90
51996;DHT22;38010;53.264;6.592;2022-10-16T01:23:01;16.80;99.90
51996;DHT22;38010;53.264;6.592;2022-10-16T01:25:36;16.80;99.90
51996;DHT22;38010;53.264;6.592;2022-10-16T01:28:05;16.80;99.90
51996;DHT22;38010;53.264;6.592;2022-10-16T01:30:33;16.80;99.90
51996;DHT22;38010;53.264;6.592;2022-10-16T01:33:10;16.80;99.90
51996;DHT22;38010;53.264;6.592;2022-10-16T01:35:43;16.80;99.90
51996;DHT22;38010;53.264;6.592;2022-10-16T01:38:17;16.80;99.90
51996;DHT22;38010;53.264;6.592;2022-10-16T01:40:52;16.80;99.90
51996;DHT22;38010;53.264;6.592;2022-10-16T01:43:28;16.80;99.90
51996;DHT22;38010;53.264;6.592;2022-10-16T01:45:57;16.80;99.90
51996;DHT22;38010;53.264;6.592;2022-10-16T01:48:24;16.80;99.90
51996;DHT22;38010;53.264;6.592;2022-10-16T01:51:02;16.80;99.90
51996;DHT22;38010;53.264;6.592;2022-10-16T01:53:29;16.80;99.90
51996;DHT22;38010;53.264;6.592;2022-10-16T01:55:56;16.80;99.90
51996;DHT22;38010;53.264;6.592;2022-10-16T01:58:25;16.80;99.90
51996;DHT22;38010;53.264;6.592;2022-10-16T02:00:52;16.80;99.90
51996;DHT22;38010;53.264;6.592;2022-10-16T02:03:20;16.80;99.90
51996;DHT22;38010;53.264;6.592;2022-10-16T02:05:55;16.80;99.90
51996;DHT22;38010;53.264;6.592;2022-10-16T02:08:23;16.80;99.90
51996;DHT22;38010;53.264;6.592;2022-10-16T02:10:50;16.80;99.90
51996;DHT22;38010;53.264;6.592;2022-10-16T02:13:36;16.80;99.90
51996;DHT22;38010;53.264;6.592;2022-10-16T02:16:03;16.80;99.90
51996;DHT22;38010;53.264;6.592;2022-10-16T02:18:29;16.80;99.90
51996;DHT22;38010;53.264;6.592;2022-10-16T02:21:02;16.80;99.90
51996;DHT22;38010;53.264;6.592;2022-10-16T02:23:51;16.80;99.90
51996;DHT22;38010;53.264;6.592;2022-10-16T02:26:27;16.80;99.90
51996;DHT22;38010;53.264;6.592;2022-10-16T02:28:59;16.80;99.90
51996;DHT22;38010;53.264;6.592;2022-10-16T02:31:28;16.80;99.90
51996;DHT22;38010;53.264;6.592;2022-10-16T02:33:58;16.80;99.90
51996;DHT22;38010;53.264;6.592;2022-10-16T02:36:25;16.80;99.90
51996;DHT22;38010;53.264;6.592;2022-10-16T02:38:52;16.80;99.90
51996;DHT22;38010;53.264;6.592;2022-10-16T02:41:20;16.80;99.90
51996;DHT22;38010;53.264;6.592;2022-10-16T02:43:46;16.80;99.90
51996;DHT22;38010;53.264;6.592;2022-10-16T02:46:12;16.80;99.90
51996;DHT22;38010;53.264;6.592;2022-10-16T02:48:37;16.80;99.90
51996;DHT22;38010;53.264;6.592;2022-10-16T02:51:04;16.80;99.90
51996;DHT22;38010;53.264;6.592;2022-10-16T02:53:30;16.80;99.90
51996;DHT22;38010;53.264;6.592;2022-10-16T02:55:56;16.80;99.90
51996;DHT22;38010;53.264;6.592;2022-10-16T02:58:21;16.80;99.90
51996;DHT22;38010;53.264;6.592;2022-10-16T03:00:47;16.80;99.90
51996;DHT22;38010;53.264;6.592;2022-10-16T03:03:13;16.70;99.90
51996;DHT22;38010;53.264;6.592;2022-10-16T03:05:38;16.80;99.90
51996;DHT22;38010;53.264;6.592;2022-10-16T03:08:04;16.80;99.90
51996;DHT22;38010;53.264;6.592;2022-10-16T03:10:30;16.80;99.90
51996;DHT22;38010;53.264;6.592;2022-10-16T03:12:56;16.80;99.90
51996;DHT22;38010;53.264;6.592;2022-10-16T03:15:21;16.80;99.90
51996;DHT22;38010;53.264;6.592;2022-10-16T03:17:47;16.80;99.90
51996;DHT22;38010;53.264;6.592;2022-10-16T03:20:13;16.70;99.90
51996;DHT22;38010;53.264;6.592;2022-10-16T03:22:38;16.80;99.90
51996;DHT22;38010;53.264;6.592;2022-10-16T03:25:04;16.80;99.90
51996;DHT22;38010;53.264;6.592;2022-10-16T03:27:30;16.70;99.90
51996;DHT22;38010;53.264;6.592;2022-10-16T03:29:56;16.70;99.90
51996;DHT22;38010;53.264;6.592;2022-10-16T03:32:22;16.70;99.90
51996;DHT22;38010;53.264;6.592;2022-10-16T03:34:48;16.80;99.90
51996;DHT22;38010;53.264;6.592;2022-10-16T03:37:13;16.70;99.90
51996;DHT22;38010;53.264;6.592;2022-10-16T03:39:39;16.70;99.90
51996;DHT22;38010;53.264;6.592;2022-10-16T03:42:04;16.80;99.90
51996;DHT22;38010;53.264;6.592;2022-10-16T03:44:30;16.70;99.90
51996;DHT22;38010;53.264;6.592;2022-10-16T03:46:56;16.70;99.90
51996;DHT22;38010;53.264;6.592;2022-10-16T03:49:21;16.70;99.90
51996;DHT22;38010;53.264;6.592;2022-10-16T03:51:47;16.70;99.90
51996;DHT22;38010;53.264;6.592;2022-10-16T03:54:12;16.70;99.90
51996;DHT22;38010;53.264;6.592;2022-10-16T03:56:38;16.70;99.90
51996;DHT22;38010;53.264;6.592;2022-10-16T03:59:04;16.70;99.90
51996;DHT22;38010;53.264;6.592;2022-10-16T04:01:30;16.70;99.90
51996;DHT22;38010;53.264;6.592;2022-10-16T04:03:55;16.70;99.90
51996;DHT22;38010;53.264;6.592;2022-10-16T04:06:21;16.70;99.90
51996;DHT22;38010;53.264;6.592;2022-10-16T04:08:46;16.70;99.90
51996;DHT22;38010;53.264;6.592;2022-10-16T04:11:12;16.70;99.90
51996;DHT22;38010;53.264;6.592;2022-10-16T04:13:38;16.70;99.90
51996;DHT22;38010;53.264;6.592;2022-10-16T04:16:04;16.70;99.90
51996;DHT22;38010;53.264;6.592;2022-10-16T04:18:30;16.70;99.90
51996;DHT22;38010;53.264;6.592;2022-10-16T04:20:55;16.70;99.90
51996;DHT22;38010;53.264;6.592;2022-10-16T04:23:21;16.70;99.90
51996;DHT22;38010;53.264;6.592;2022-10-16T04:25:48;16.70;99.90
51996;DHT22;38010;53.264;6.592;2022-10-16T04:28:14;16.70;99.90
51996;DHT22;38010;53.264;6.592;2022-10-16T04:30:39;16.70;99.90
51996;DHT22;38010;53.264;6.592;2022-10-16T04:33:05;16.60;99.90
51996;DHT22;38010;53.264;6.592;2022-10-16T04:35:31;16.70;99.90
51996;DHT22;38010;53.264;6.592;2022-10-16T04:37:59;16.70;99.90
51996;DHT22;38010;53.264;6.592;2022-10-16T04:40:25;16.70;99.90
51996;DHT22;38010;53.264;6.592;2022-10-16T04:42:51;16.60;99.90
51996;DHT22;38010;53.264;6.592;2022-10-16T04:45:16;16.70;99.90
51996;DHT22;38010;53.264;6.592;2022-10-16T04:47:42;16.70;99.90
51996;DHT22;38010;53.264;6.592;2022-10-16T04:50:08;16.60;99.90
51996;DHT22;38010;53.264;6.592;2022-10-16T04:52:34;16.60;99.90
51996;DHT22;38010;53.264;6.592;2022-10-16T04:54:59;16.70;99.90
51996;DHT22;38010;53.264;6.592;2022-10-16T04:57:29;16.60;99.90
51996;DHT22;38010;53.264;6.592;2022-10-16T04:59:55;16.60;99.90
51996;DHT22;38010;53.264;6.592;2022-10-16T05:02:20;16.60;99.90
51996;DHT22;38010;53.264;6.592;2022-10-16T05:04:46;16.60;99.90
51996;DHT22;38010;53.264;6.592;2022-10-16T05:07:12;16.60;99.90
51996;DHT22;38010;53.264;6.592;2022-10-16T05:09:37;16.60;99.90
51996;DHT22;38010;53.264;6.592;2022-10-16T05:12:03;16.60;99.90
51996;DHT22;38010;53.264;6.592;2022-10-16T05:14:29;16.60;99.90
51996;DHT22;38010;53.264;6.592;2022-10-16T05:16:55;16.60;99.90
51996;DHT22;38010;53.264;6.592;2022-10-16T05:19:21;16.60;99.90
51996;DHT22;38010;53.264;6.592;2022-10-16T05:21:46;16.60;99.90
51996;DHT22;38010;53.264;6.592;2022-10-16T05:24:12;16.60;99.90
51996;DHT22;38010;53.264;6.592;2022-10-16T05:26:38;16.60;99.90
51996;DHT22;38010;53.264;6.592;2022-10-16T05:29:03;16.60;99.90
51996;DHT22;38010;53.264;6.592;2022-10-16T05:31:29;16.60;99.90
51996;DHT22;38010;53.264;6.592;2022-10-16T05:34:01;16.60;99.90
51996;DHT22;38010;53.264;6.592;2022-10-16T05:36:27;16.60;99.90
51996;DHT22;38010;53.264;6.592;2022-10-16T05:38:53;16.60;99.90
51996;DHT22;38010;53.264;6.592;2022-10-16T05:41:19;16.60;99.90
51996;DHT22;38010;53.264;6.592;2022-10-16T05:43:47;16.60;99.90
51996;DHT22;38010;53.264;6.592;2022-10-16T05:46:13;16.60;99.90
51996;DHT22;38010;53.264;6.592;2022-10-16T05:48:39;16.60;99.90
51996;DHT22;38010;53.264;6.592;2022-10-16T05:51:06;16.60;99.90
51996;DHT22;38010;53.264;6.592;2022-10-16T05:53:34;16.60;99.90
51996;DHT22;38010;53.264;6.592;2022-10-16T05:56:01;16.60;99.90
51996;DHT22;38010;53.264;6.592;2022-10-16T05:58:32;16.60;99.90
51996;DHT22;38010;53.264;6.592;2022-10-16T06:01:10;16.60;99.90
51996;DHT22;38010;53.264;6.592;2022-10-16T06:03:37;16.60;99.90
51996;DHT22;38010;53.264;6.592;2022-10-16T06:06:10;16.60;99.90
51996;DHT22;38010;53.264;6.592;2022-10-16T06:08:37;16.60;99.90
51996;DHT22;38010;53.264;6.592;2022-10-16T06:11:05;16.60;99.90
51996;DHT22;38010;53.264;6.592;2022-10-16T06:13:31;16.60;99.90
51996;DHT22;38010;53.264;6.592;2022-10-16T06:15:58;16.60;99.90
51996;DHT22;38010;53.264;6.592;2022-10-16T06:18:25;16.60;99.90
51996;DHT22;38010;53.264;6.592;2022-10-16T06:20:50;16.60;99.90
51996;DHT22;38010;53.264;6.592;2022-10-16T06:23:16;16.60;99.90
51996;DHT22;38010;53.264;6.592;2022-10-16T06:25:41;16.60;99.90
51996;DHT22;38010;53.264;6.592;2022-10-16T06:28:07;16.60;99.90
51996;DHT22;38010;53.264;6.592;2022-10-16T06:30:33;16.60;99.90
51996;DHT22;38010;53.264;6.592;2022-10-16T06:32:58;16.60;99.90
51996;DHT22;38010;53.264;6.592;2022-10-16T06:35:24;16.60;99.90
51996;DHT22;38010;53.264;6.592;2022-10-16T06:37:50;16.60;99.90
51996;DHT22;38010;53.264;6.592;2022-10-16T06:40:15;16.60;99.90
51996;DHT22;38010;53.264;6.592;2022-10-16T06:42:41;16.60;99.90
51996;DHT22;38010;53.264;6.592;2022-10-16T06:45:07;16.60;99.90
51996;DHT22;38010;53.264;6.592;2022-10-16T06:47:33;16.60;99.90
51996;DHT22;38010;53.264;6.592;2022-10-16T06:49:59;16.60;99.90
51996;DHT22;38010;53.264;6.592;2022-10-16T06:52:24;16.60;99.90
51996;DHT22;38010;53.264;6.592;2022-10-16T06:54:52;16.60;99.90
51996;DHT22;38010;53.264;6.592;2022-10-16T06:57:18;16.60;99.90
51996;DHT22;38010;53.264;6.592;2022-10-16T06:59:44;16.60;99.90
51996;DHT22;38010;53.264;6.592;2022-10-16T07:02:09;16.60;99.90
51996;DHT22;38010;53.264;6.592;2022-10-16T07:04:36;16.60;99.90
51996;DHT22;38010;53.264;6.592;2022-10-16T07:07:01;16.60;99.90
51996;DHT22;38010;53.264;6.592;2022-10-16T07:09:27;16.60;99.90
51996;DHT22;38010;53.264;6.592;2022-10-16T07:11:53;16.60;99.90
51996;DHT22;38010;53.264;6.592;2022-10-16T07:14:20;16.50;99.90
51996;DHT22;38010;53.264;6.592;2022-10-16T07:16:47;16.60;99.90
51996;DHT22;38010;53.264;6.592;2022-10-16T07:19:13;16.60;99.90
51996;DHT22;38010;53.264;6.592;2022-10-16T07:21:40;16.60;99.90
51996;DHT22;38010;53.264;6.592;2022-10-16T07:24:10;16.50;99.90
51996;DHT22;38010;53.264;6.592;2022-10-16T07:26:36;16.60;99.90
51996;DHT22;38010;53.264;6.592;2022-10-16T07:29:05;16.60;99.90
51996;DHT22;38010;53.264;6.592;2022-10-16T07:31:32;16.60;99.90
51996;DHT22;38010;53.264;6.592;2022-10-16T07:33:58;16.50;99.90
51996;DHT22;38010;53.264;6.592;2022-10-16T07:36:25;16.60;99.90
51996;DHT22;38010;53.264;6.592;2022-10-16T07:38:50;16.60;99.90
51996;DHT22;38010;53.264;6.592;2022-10-16T07:41:18;16.60;99.90
51996;DHT22;38010;53.264;6.592;2022-10-16T07:43:52;16.60;99.90
51996;DHT22;38010;53.264;6.592;2022-10-16T07:46:19;16.60;99.90
51996;DHT22;38010;53.264;6.592;2022-10-16T07:48:44;16.60;99.90
51996;DHT22;38010;53.264;6.592;2022-10-16T07:51:17;16.60;99.90
51996;DHT22;38010;53.264;6.592;2022-10-16T07:53:43;16.60;99.90
51996;DHT22;38010;53.264;6.592;2022-10-16T07:56:10;16.60;99.90
51996;DHT22;38010;53.264;6.592;2022-10-16T07:58:37;16.60;99.90
51996;DHT22;38010;53.264;6.592;2022-10-16T08:01:05;16.60;99.90
51996;DHT22;38010;53.264;6.592;2022-10-16T08:03:31;16.60;99.90
51996;DHT22;38010;53.264;6.592;2022-10-16T08:05:57;16.60;99.90
51996;DHT22;38010;53.264;6.592;2022-10-16T08:08:23;16.60;99.90
51996;DHT22;38010;53.264;6.592;2022-10-16T08:10:49;16.60;99.90
51996;DHT22;38010;53.264;6.592;2022-10-16T08:13:15;16.60;99.90
51996;DHT22;38010;53.264;6.592;2022-10-16T08:15:42;16.60;99.90
51996;DHT22;38010;53.264;6.592;2022-10-16T08:18:09;16.60;99.90
51996;DHT22;38010;53.264;6.592;2022-10-16T08:20:35;16.60;99.90
51996;DHT22;38010;53.264;6.592;2022-10-16T08:23:01;16.60;99.90
51996;DHT22;38010;53.264;6.592;2022-10-16T08:25:28;16.60;99.90
51996;DHT22;38010;53.264;6.592;2022-10-16T08:27:53;16.60;99.90
51996;DHT22;38010;53.264;6.592;2022-10-16T08:30:21;16.60;99.90
51996;DHT22;38010;53.264;6.592;2022-10-16T08:32:47;16.60;99.90
51996;DHT22;38010;53.264;6.592;2022-10-16T08:35:13;16.60;99.90
51996;DHT22;38010;53.264;6.592;2022-10-16T08:37:40;16.60;99.90
51996;DHT22;38010;53.264;6.592;2022-10-16T08:40:07;16.70;99.90
51996;DHT22;38010;53.264;6.592;2022-10-16T08:50:35;16.60;99.90
51996;DHT22;38010;53.264;6.592;2022-10-16T08:53:04;16.70;99.90
51996;DHT22;38010;53.264;6.592;2022-10-16T08:55:56;16.60;99.90
51996;DHT22;38010;53.264;6.592;2022-10-16T08:58:28;16.60;99.90
51996;DHT22;38010;53.264;6.592;2022-10-16T09:00:57;16.70;99.90
51996;DHT22;38010;53.264;6.592;2022-10-16T09:06:05;16.70;99.90
51996;DHT22;38010;53.264;6.592;2022-10-16T09:11:46;16.70;99.90
51996;DHT22;38010;53.264;6.592;2022-10-16T09:19:53;16.70;99.90
51996;DHT22;38010;53.264;6.592;2022-10-16T09:22:22;16.60;99.90
51996;DHT22;38010;53.264;6.592;2022-10-16T09:24:50;16.60;99.90
51996;DHT22;38010;53.264;6.592;2022-10-16T09:27:16;16.70;99.90
51996;DHT22;38010;53.264;6.592;2022-10-16T09:29:42;16.70;99.90
51996;DHT22;38010;53.264;6.592;2022-10-16T09:32:17;16.70;99.90
51996;DHT22;38010;53.264;6.592;2022-10-16T09:35:01;16.70;99.90
51996;DHT22;38010;53.264;6.592;2022-10-16T09:37:28;16.70;99.90
51996;DHT22;38010;53.264;6.592;2022-10-16T09:39:54;16.70;99.90
51996;DHT22;38010;53.264;6.592;2022-10-16T09:42:32;16.70;99.90
51996;DHT22;38010;53.264;6.592;2022-10-16T09:44:59;16.70;99.90
51996;DHT22;38010;53.264;6.592;2022-10-16T09:47:29;16.70;99.90
51996;DHT22;38010;53.264;6.592;2022-10-16T09:50:00;16.70;99.90
51996;DHT22;38010;53.264;6.592;2022-10-16T09:52:32;16.70;99.90
51996;DHT22;38010;53.264;6.592;2022-10-16T09:55:12;16.70;99.90
51996;DHT22;38010;53.264;6.592;2022-10-16T09:57:55;16.70;99.90
51996;DHT22;38010;53.264;6.592;2022-10-16T10:00:23;16.70;99.90
51996;DHT22;38010;53.264;6.592;2022-10-16T10:02:49;16.70;99.90
51996;DHT22;38010;53.264;6.592;2022-10-16T10:05:21;16.70;99.90
51996;DHT22;38010;53.264;6.592;2022-10-16T10:07:55;16.70;99.90
51996;DHT22;38010;53.264;6.592;2022-10-16T10:10:33;16.70;99.90
51996;DHT22;38010;53.264;6.592;2022-10-16T10:12:59;16.70;99.90
51996;DHT22;38010;53.264;6.592;2022-10-16T10:15:25;16.70;99.90
51996;DHT22;38010;53.264;6.592;2022-10-16T10:17:57;16.70;99.90
51996;DHT22;38010;53.264;6.592;2022-10-16T10:20:34;16.70;99.90
51996;DHT22;38010;53.264;6.592;2022-10-16T10:23:21;16.70;99.90
51996;DHT22;38010;53.264;6.592;2022-10-16T10:31:11;16.70;99.90
51996;DHT22;38010;53.264;6.592;2022-10-16T10:33:53;16.70;99.90
51996;DHT22;38010;53.264;6.592;2022-10-16T10:36:36;16.70;99.90
51996;DHT22;38010;53.264;6.592;2022-10-16T10:39:40;16.80;99.90
51996;DHT22;38010;53.264;6.592;2022-10-16T10:45:22;16.70;99.90
51996;DHT22;38010;53.264;6.592;2022-10-16T10:50:45;16.70;99.90
51996;DHT22;38010;53.264;6.592;2022-10-16T11:01:22;16.80;99.90
51996;DHT22;38010;53.264;6.592;2022-10-16T11:06:51;16.80;99.90
51996;DHT22;38010;53.264;6.592;2022-10-16T11:09:21;16.80;99.90
51996;DHT22;38010;53.264;6.592;2022-10-16T11:14:36;16.80;99.90
51996;DHT22;38010;53.264;6.592;2022-10-16T11:17:21;16.80;99.90
51996;DHT22;38010;53.264;6.592;2022-10-16T11:22:41;16.80;99.90
51996;DHT22;38010;53.264;6.592;2022-10-16T11:25:13;16.80;99.90
51996;DHT22;38010;53.264;6.592;2022-10-16T11:27:47;16.90;99.90
51996;DHT22;38010;53.264;6.592;2022-10-16T11:30:18;16.80;99.90
51996;DHT22;38010;53.264;6.592;2022-10-16T11:38:24;16.90;99.90
51996;DHT22;38010;53.264;6.592;2022-10-16T11:40:54;16.90;99.90
51996;DHT22;38010;53.264;6.592;2022-10-16T11:43:32;16.90;99.90
51996;DHT22;38010;53.264;6.592;2022-10-16T11:46:30;16.90;99.90
51996;DHT22;38010;53.264;6.592;2022-10-16T11:49:06;16.90;99.90
51996;DHT22;38010;53.264;6.592;2022-10-16T11:51:38;16.90;99.90
51996;DHT22;38010;53.264;6.592;2022-10-16T11:56:41;16.90;99.90
51996;DHT22;38010;53.264;6.592;2022-10-16T11:59:29;16.90;99.90
51996;DHT22;38010;53.264;6.592;2022-10-16T12:02:31;16.90;99.90
51996;DHT22;38010;53.264;6.592;2022-10-16T12:05:20;16.90;99.90
51996;DHT22;38010;53.264;6.592;2022-10-16T12:08:10;16.90;99.90
51996;DHT22;38010;53.264;6.592;2022-10-16T12:10:39;16.90;99.90
51996;DHT22;38010;53.264;6.592;2022-10-16T12:15:33;16.90;99.90
51996;DHT22;38010;53.264;6.592;2022-10-16T12:17:59;16.90;99.90
51996;DHT22;38010;53.264;6.592;2022-10-16T12:20:31;17.00;99.90
51996;DHT22;38010;53.264;6.592;2022-10-16T12:23:07;17.00;99.90
51996;DHT22;38010;53.264;6.592;2022-10-16T12:25:54;17.00;99.90
51996;DHT22;38010;53.264;6.592;2022-10-16T12:28:25;16.90;99.90
51996;DHT22;38010;53.264;6.592;2022-10-16T12:30:57;16.90;99.90
51996;DHT22;38010;53.264;6.592;2022-10-16T12:33:31;16.90;99.90
51996;DHT22;38010;53.264;6.592;2022-10-16T12:36:00;16.90;99.90
51996;DHT22;38010;53.264;6.592;2022-10-16T12:38:37;17.00;99.90
51996;DHT22;38010;53.264;6.592;2022-10-16T12:41:06;17.00;99.90
51996;DHT22;38010;53.264;6.592;2022-10-16T12:43:40;17.00;99.90
51996;DHT22;38010;53.264;6.592;2022-10-16T12:48:41;17.00;99.90
51996;DHT22;38010;53.264;6.592;2022-10-16T12:51:33;17.10;99.90
51996;DHT22;38010;53.264;6.592;2022-10-16T12:54:03;17.20;99.90
51996;DHT22;38010;53.264;6.592;2022-10-16T12:56:46;17.30;99.90
51996;DHT22;38010;53.264;6.592;2022-10-16T13:07:33;17.40;99.90
51996;DHT22;38010;53.264;6.592;2022-10-16T13:13:26;17.50;99.90
51996;DHT22;38010;53.264;6.592;2022-10-16T13:21:37;17.40;99.90
51996;DHT22;38010;53.264;6.592;2022-10-16T13:24:35;17.50;99.90
51996;DHT22;38010;53.264;6.592;2022-10-16T13:32:49;17.70;99.90
51996;DHT22;38010;53.264;6.592;2022-10-16T13:35:28;17.80;99.90
51996;DHT22;38010;53.264;6.592;2022-10-16T13:40:30;17.90;99.90
51996;DHT22;38010;53.264;6.592;2022-10-16T13:42:55;18.00;99.90
51996;DHT22;38010;53.264;6.592;2022-10-16T13:45:24;18.00;99.90
51996;DHT22;38010;53.264;6.592;2022-10-16T13:48:04;18.00;99.90
51996;DHT22;38010;53.264;6.592;2022-10-16T13:50:30;18.10;99.90
51996;DHT22;38010;53.264;6.592;2022-10-16T13:53:15;18.20;99.90
51996;DHT22;38010;53.264;6.592;2022-10-16T13:55:40;18.30;99.90
51996;DHT22;38010;53.264;6.592;2022-10-16T13:58:12;18.40;99.90
51996;DHT22;38010;53.264;6.592;2022-10-16T14:00:39;18.50;99.90
51996;DHT22;38010;53.264;6.592;2022-10-16T14:03:11;18.50;99.90
51996;DHT22;38010;53.264;6.592;2022-10-16T14:05:48;18.60;99.90
51996;DHT22;38010;53.264;6.592;2022-10-16T14:08:14;18.60;99.90
51996;DHT22;38010;53.264;6.592;2022-10-16T14:10:40;18.70;99.90
51996;DHT22;38010;53.264;6.592;2022-10-16T14:13:07;18.70;99.90
51996;DHT22;38010;53.264;6.592;2022-10-16T14:15:38;18.70;99.90
51996;DHT22;38010;53.264;6.592;2022-10-16T14:18:05;18.70;99.90
51996;DHT22;38010;53.264;6.592;2022-10-16T14:20:33;18.70;99.90
51996;DHT22;38010;53.264;6.592;2022-10-16T14:23:04;18.70;99.90
51996;DHT22;38010;53.264;6.592;2022-10-16T14:25:43;18.60;99.90
51996;DHT22;38010;53.264;6.592;2022-10-16T14:28:22;18.60;99.90
51996;DHT22;38010;53.264;6.592;2022-10-16T14:30:54;18.50;99.90
51996;DHT22;38010;53.264;6.592;2022-10-16T14:38:35;18.30;99.90
51996;DHT22;38010;53.264;6.592;2022-10-16T14:41:01;18.30;99.90
51996;DHT22;38010;53.264;6.592;2022-10-16T14:43:35;18.30;99.90
51996;DHT22;38010;53.264;6.592;2022-10-16T14:46:11;18.20;99.90
51996;DHT22;38010;53.264;6.592;2022-10-16T14:48:41;18.20;99.90
51996;DHT22;38010;53.264;6.592;2022-10-16T14:51:13;18.10;99.90
51996;DHT22;38010;53.264;6.592;2022-10-16T14:53:40;18.10;99.90
51996;DHT22;38010;53.264;6.592;2022-10-16T14:56:08;18.10;99.90
51996;DHT22;38010;53.264;6.592;2022-10-16T14:58:35;18.00;99.90
51996;DHT22;38010;53.264;6.592;2022-10-16T15:01:00;17.90;99.90
51996;DHT22;38010;53.264;6.592;2022-10-16T15:03:26;17.90;99.90
51996;DHT22;38010;53.264;6.592;2022-10-16T15:05:52;17.90;99.90
51996;DHT22;38010;53.264;6.592;2022-10-16T15:08:17;17.80;99.90
51996;DHT22;38010;53.264;6.592;2022-10-16T15:10:44;17.90;99.90
51996;DHT22;38010;53.264;6.592;2022-10-16T15:13:12;17.80;99.90
51996;DHT22;38010;53.264;6.592;2022-10-16T15:15:44;17.80;99.90
51996;DHT22;38010;53.264;6.592;2022-10-16T15:18:10;17.80;99.90
51996;DHT22;38010;53.264;6.592;2022-10-16T15:20:38;17.70;99.90
51996;DHT22;38010;53.264;6.592;2022-10-16T15:23:09;17.70;99.90
51996;DHT22;38010;53.264;6.592;2022-10-16T15:25:47;17.60;99.90
51996;DHT22;38010;53.264;6.592;2022-10-16T15:28:14;17.70;99.90
51996;DHT22;38010;53.264;6.592;2022-10-16T15:30:41;17.60;99.90
51996;DHT22;38010;53.264;6.592;2022-10-16T15:33:12;17.60;99.90
51996;DHT22;38010;53.264;6.592;2022-10-16T15:35:39;17.60;99.90
51996;DHT22;38010;53.264;6.592;2022-10-16T15:38:04;17.60;99.90
51996;DHT22;38010;53.264;6.592;2022-10-16T15:40:30;17.60;99.90
51996;DHT22;38010;53.264;6.592;2022-10-16T15:42:56;17.50;99.90
51996;DHT22;38010;53.264;6.592;2022-10-16T15:45:22;17.50;99.90
51996;DHT22;38010;53.264;6.592;2022-10-16T15:47:48;17.50;99.90
51996;DHT22;38010;53.264;6.592;2022-10-16T15:50:15;17.50;99.90
51996;DHT22;38010;53.264;6.592;2022-10-16T15:52:41;17.50;99.90
51996;DHT22;38010;53.264;6.592;2022-10-16T15:55:08;17.40;99.90
51996;DHT22;38010;53.264;6.592;2022-10-16T15:57:35;17.50;99.90
51996;DHT22;38010;53.264;6.592;2022-10-16T16:00:07;17.40;99.90
51996;DHT22;38010;53.264;6.592;2022-10-16T16:02:33;17.40;99.90
51996;DHT22;38010;53.264;6.592;2022-10-16T16:04:59;17.40;99.90
51996;DHT22;38010;53.264;6.592;2022-10-16T16:07:24;17.40;99.90
51996;DHT22;38010;53.264;6.592;2022-10-16T16:09:50;17.40;99.90
51996;DHT22;38010;53.264;6.592;2022-10-16T16:12:16;17.40;99.90
51996;DHT22;38010;53.264;6.592;2022-10-16T16:14:41;17.40;99.90
51996;DHT22;38010;53.264;6.592;2022-10-16T16:17:07;17.40;99.90
51996;DHT22;38010;53.264;6.592;2022-10-16T16:19:33;17.40;99.90
51996;DHT22;38010;53.264;6.592;2022-10-16T16:21:59;17.40;99.90
51996;DHT22;38010;53.264;6.592;2022-10-16T16:24:25;17.40;99.90
51996;DHT22;38010;53.264;6.592;2022-10-16T16:26:50;17.40;99.90
51996;DHT22;38010;53.264;6.592;2022-10-16T16:29:16;17.40;99.90
51996;DHT22;38010;53.264;6.592;2022-10-16T16:31:42;17.40;99.90
51996;DHT22;38010;53.264;6.592;2022-10-16T16:34:08;17.40;99.90
51996;DHT22;38010;53.264;6.592;2022-10-16T16:36:35;17.40;99.90
51996;DHT22;38010;53.264;6.592;2022-10-16T16:39:01;17.40;99.90
51996;DHT22;38010;53.264;6.592;2022-10-16T16:41:28;17.40;99.90
51996;DHT22;38010;53.264;6.592;2022-10-16T16:43:56;17.40;99.90
51996;DHT22;38010;53.264;6.592;2022-10-16T16:46:26;17.40;99.90
51996;DHT22;38010;53.264;6.592;2022-10-16T16:48:52;17.50;99.90
51996;DHT22;38010;53.264;6.592;2022-10-16T16:51:21;17.50;99.90
51996;DHT22;38010;53.264;6.592;2022-10-16T16:53:49;17.50;99.90
51996;DHT22;38010;53.264;6.592;2022-10-16T16:56:16;17.60;99.90
51996;DHT22;38010;53.264;6.592;2022-10-16T16:58:45;17.60;99.90
51996;DHT22;38010;53.264;6.592;2022-10-16T17:01:10;17.60;99.90
51996;DHT22;38010;53.264;6.592;2022-10-16T17:03:36;17.60;99.90
51996;DHT22;38010;53.264;6.592;2022-10-16T17:06:04;17.70;99.90
51996;DHT22;38010;53.264;6.592;2022-10-16T17:08:31;17.80;99.90
51996;DHT22;38010;53.264;6.592;2022-10-16T17:10:57;17.80;99.90
51996;DHT22;38010;53.264;6.592;2022-10-16T17:13:28;17.90;99.90
51996;DHT22;38010;53.264;6.592;2022-10-16T17:15:54;17.90;99.90
51996;DHT22;38010;53.264;6.592;2022-10-16T17:18:21;17.90;99.90
51996;DHT22;38010;53.264;6.592;2022-10-16T17:20:48;17.90;99.90
51996;DHT22;38010;53.264;6.592;2022-10-16T17:23:14;17.90;99.90